sensor_id;sensor_type;location;lat;lon;timestamp;pressure;altitude;pressure_sealevel;temperature;humidity
53340;BME280;46212;50.258;19.062;2023-06-22T00:01:02;98644.31;;;20.14;93.19
53340;BME280;46212;50.258;19.062;2023-06-22T00:03:27;98652.66;;;20.20;94.28
53340;BME280;46212;50.258;19.062;2023-06-22T00:05:53;98644.72;;;20.30;92.98
53340;BME280;46212;50.258;19.062;2023-06-22T00:08:19;98651.13;;;20.25;93.20
53340;BME280;46212;50.258;19.062;2023-06-22T00:10:45;98660.25;;;20.36;93.26
53340;BME280;46212;50.258;19.062;2023-06-22T00:13:12;98658.25;;;20.31;92.84
53340;BME280;46212;50.258;19.062;2023-06-22T00:15:40;98644.78;;;20.19;93.44
53340;BME280;46212;50.258;19.062;2023-06-22T00:18:06;98646.34;;;20.14;93.36
53340;BME280;46212;50.258;19.062;2023-06-22T00:20:32;98668.84;;;20.03;94.27
53340;BME280;46212;50.258;19.062;2023-06-22T00:23:01;98654.88;;;19.97;94.86
53340;BME280;46212;50.258;19.062;2023-06-22T00:25:27;98655.13;;;19.99;94.96
53340;BME280;46212;50.258;19.062;2023-06-22T00:27:52;98663.69;;;20.12;93.79
53340;BME280;46212;50.258;19.062;2023-06-22T00:30:18;98663.75;;;20.07;94.18
53340;BME280;46212;50.258;19.062;2023-06-22T00:32:45;98680.31;;;20.05;94.57
53340;BME280;46212;50.258;19.062;2023-06-22T00:35:11;98675.41;;;20.11;94.40
53340;BME280;46212;50.258;19.062;2023-06-22T00:37:38;98677.69;;;20.18;94.08
53340;BME280;46212;50.258;19.062;2023-06-22T00:40:08;98683.06;;;20.16;93.82
53340;BME280;46212;50.258;19.062;2023-06-22T00:42:34;98670.34;;;20.09;93.38
53340;BME280;46212;50.258;19.062;2023-06-22T00:44:59;98679.38;;;19.91;94.93
53340;BME280;46212;50.258;19.062;2023-06-22T00:47:24;98672.25;;;19.90;94.91
53340;BME280;46212;50.258;19.062;2023-06-22T00:49:50;98660.59;;;19.75;96.03
53340;BME280;46212;50.258;19.062;2023-06-22T00:52:21;98664.09;;;19.87;95.25
53340;BME280;46212;50.258;19.062;2023-06-22T00:54:51;98659.31;;;19.82;95.57
53340;BME280;46212;50.258;19.062;2023-06-22T00:57:17;98661.84;;;19.80;95.34
53340;BME280;46212;50.258;19.062;2023-06-22T00:59:44;98658.06;;;19.72;95.67
53340;BME280;46212;50.258;19.062;2023-06-22T01:02:10;98662.69;;;19.69;95.63
53340;BME280;46212;50.258;19.062;2023-06-22T01:04:37;98675.69;;;19.61;96.23
53340;BME280;46212;50.258;19.062;2023-06-22T01:07:29;98669.47;;;19.85;95.37
53340;BME280;46212;50.258;19.062;2023-06-22T01:10:02;98677.69;;;19.72;95.24
53340;BME280;46212;50.258;19.062;2023-06-22T01:12:36;98669.84;;;19.59;96.44
53340;BME280;46212;50.258;19.062;2023-06-22T01:15:49;98666.75;;;19.68;95.67
53340;BME280;46212;50.258;19.062;2023-06-22T01:17:56;98658.41;;;19.51;96.25
53340;BME280;46212;50.258;19.062;2023-06-22T01:20:23;98656.63;;;19.48;96.50
53340;BME280;46212;50.258;19.062;2023-06-22T01:23:02;98655.56;;;19.57;96.29
53340;BME280;46212;50.258;19.062;2023-06-22T01:25:47;98648.97;;;19.54;96.43
53340;BME280;46212;50.258;19.062;2023-06-22T01:28:42;98657.91;;;19.47;96.97
53340;BME280;46212;50.258;19.062;2023-06-22T01:31:09;98656.88;;;19.50;96.49
53340;BME280;46212;50.258;19.062;2023-06-22T01:33:39;98654.06;;;19.56;96.02
53340;BME280;46212;50.258;19.062;2023-06-22T01:36:07;98661.72;;;19.44;96.83
53340;BME280;46212;50.258;19.062;2023-06-22T01:38:32;98656.91;;;19.34;98.08
53340;BME280;46212;50.258;19.062;2023-06-22T01:40:59;98659.72;;;19.34;98.21
53340;BME280;46212;50.258;19.062;2023-06-22T01:43:26;98665.56;;;19.47;97.31
53340;BME280;46212;50.258;19.062;2023-06-22T01:45:54;98669.38;;;19.49;97.41
53340;BME280;46212;50.258;19.062;2023-06-22T01:48:20;98672.94;;;19.39;97.97
53340;BME280;46212;50.258;19.062;2023-06-22T01:50:46;98665.09;;;19.26;98.12
53340;BME280;46212;50.258;19.062;2023-06-22T01:53:12;98666.81;;;19.35;98.30
53340;BME280;46212;50.258;19.062;2023-06-22T01:55:37;98679.06;;;19.37;97.72
53340;BME280;46212;50.258;19.062;2023-06-22T01:58:03;98671.69;;;19.40;97.70
53340;BME280;46212;50.258;19.062;2023-06-22T02:00:31;98672.44;;;19.35;97.33
53340;BME280;46212;50.258;19.062;2023-06-22T02:03:05;98672.97;;;19.33;96.99
53340;BME280;46212;50.258;19.062;2023-06-22T02:05:47;98676.78;;;19.41;96.85
53340;BME280;46212;50.258;19.062;2023-06-22T02:08:24;98683.88;;;19.31;96.67
53340;BME280;46212;50.258;19.062;2023-06-22T02:10:51;98678.63;;;19.00;98.19
53340;BME280;46212;50.258;19.062;2023-06-22T02:13:18;98682.44;;;18.97;98.85
53340;BME280;46212;50.258;19.062;2023-06-22T02:15:45;98675.84;;;19.05;99.34
53340;BME280;46212;50.258;19.062;2023-06-22T02:18:11;98670.75;;;18.93;98.53
53340;BME280;46212;50.258;19.062;2023-06-22T02:20:38;98675.31;;;18.90;98.95
53340;BME280;46212;50.258;19.062;2023-06-22T02:23:05;98683.22;;;18.92;99.42
53340;BME280;46212;50.258;19.062;2023-06-22T02:25:30;98682.19;;;18.84;99.97
53340;BME280;46212;50.258;19.062;2023-06-22T02:27:57;98689.84;;;18.83;100.00
53340;BME280;46212;50.258;19.062;2023-06-22T02:30:22;98687.56;;;18.76;100.00
53340;BME280;46212;50.258;19.062;2023-06-22T02:32:47;98682.19;;;18.84;100.00
53340;BME280;46212;50.258;19.062;2023-06-22T02:35:13;98685.53;;;18.82;100.00
53340;BME280;46212;50.258;19.062;2023-06-22T02:37:39;98679.91;;;18.82;100.00
53340;BME280;46212;50.258;19.062;2023-06-22T02:40:07;98690.88;;;18.86;100.00
53340;BME280;46212;50.258;19.062;2023-06-22T02:42:34;98685.00;;;18.73;100.00
53340;BME280;46212;50.258;19.062;2023-06-22T02:44:59;98698.25;;;18.72;100.00
53340;BME280;46212;50.258;19.062;2023-06-22T02:47:25;98697.22;;;18.75;100.00
53340;BME280;46212;50.258;19.062;2023-06-22T02:49:51;98705.88;;;18.77;100.00
53340;BME280;46212;50.258;19.062;2023-06-22T02:52:16;98704.84;;;18.86;100.00
53340;BME280;46212;50.258;19.062;2023-06-22T02:54:42;98708.66;;;18.72;100.00
53340;BME280;46212;50.258;19.062;2023-06-22T02:57:07;98709.69;;;18.80;100.00
53340;BME280;46212;50.258;19.062;2023-06-22T02:59:42;98715.03;;;18.83;100.00
53340;BME280;46212;50.258;19.062;2023-06-22T03:02:10;98723.66;;;18.74;100.00
53340;BME280;46212;50.258;19.062;2023-06-22T03:04:36;98717.56;;;18.76;100.00
53340;BME280;46212;50.258;19.062;2023-06-22T03:07:02;98724.69;;;18.77;100.00
53340;BME280;46212;50.258;19.062;2023-06-22T03:09:28;98721.66;;;18.86;100.00
53340;BME280;46212;50.258;19.062;2023-06-22T03:11:56;98725.19;;;18.97;100.00
53340;BME280;46212;50.258;19.062;2023-06-22T03:14:22;98733.84;;;18.99;100.00
53340;BME280;46212;50.258;19.062;2023-06-22T03:16:47;98735.13;;;19.15;100.00
53340;BME280;46212;50.258;19.062;2023-06-22T03:19:13;98741.44;;;19.16;99.74
53340;BME280;46212;50.258;19.062;2023-06-22T03:21:39;98739.19;;;19.14;100.00
53340;BME280;46212;50.258;19.062;2023-06-22T03:24:08;98740.19;;;19.17;100.00
53340;BME280;46212;50.258;19.062;2023-06-22T03:26:34;98739.16;;;19.25;99.75
53340;BME280;46212;50.258;19.062;2023-06-22T03:28:59;98747.28;;;19.29;99.92
53340;BME280;46212;50.258;19.062;2023-06-22T03:31:25;98745.25;;;19.35;99.42
53340;BME280;46212;50.258;19.062;2023-06-22T03:33:51;98755.94;;;19.47;98.74
53340;BME280;46212;50.258;19.062;2023-06-22T03:36:17;98742.69;;;19.59;97.30
53340;BME280;46212;50.258;19.062;2023-06-22T03:38:47;98752.34;;;19.63;97.20
53340;BME280;46212;50.258;19.062;2023-06-22T03:41:12;98757.19;;;19.57;96.88
53340;BME280;46212;50.258;19.062;2023-06-22T03:43:38;98755.19;;;19.41;97.90
53340;BME280;46212;50.258;19.062;2023-06-22T03:46:04;98750.34;;;19.42;97.75
53340;BME280;46212;50.258;19.062;2023-06-22T03:48:29;98735.03;;;19.59;97.31
53340;BME280;46212;50.258;19.062;2023-06-22T03:50:54;98746.25;;;19.54;97.51
53340;BME280;46212;50.258;19.062;2023-06-22T03:53:20;98741.66;;;19.51;97.49
53340;BME280;46212;50.258;19.062;2023-06-22T03:55:50;98745.00;;;19.49;97.43
53340;BME280;46212;50.258;19.062;2023-06-22T03:58:16;98737.84;;;19.54;97.26
53340;BME280;46212;50.258;19.062;2023-06-22T04:00:47;98751.09;;;19.59;97.53
53340;BME280;46212;50.258;19.062;2023-06-22T04:03:14;98748.78;;;19.69;96.94
53340;BME280;46212;50.258;19.062;2023-06-22T04:05:40;98747.22;;;19.79;96.59
53340;BME280;46212;50.258;19.062;2023-06-22T04:08:05;98751.78;;;19.82;95.91
53340;BME280;46212;50.258;19.062;2023-06-22T04:10:31;98748.91;;;19.93;95.74
53340;BME280;46212;50.258;19.062;2023-06-22T04:12:56;98748.59;;;20.07;95.31
53340;BME280;46212;50.258;19.062;2023-06-22T04:15:22;98752.69;;;20.06;95.31
53340;BME280;46212;50.258;19.062;2023-06-22T04:17:47;98748.09;;;20.09;95.81
53340;BME280;46212;50.258;19.062;2023-06-22T04:20:12;98753.16;;;20.16;95.38
53340;BME280;46212;50.258;19.062;2023-06-22T04:22:38;98754.13;;;20.24;95.33
53340;BME280;46212;50.258;19.062;2023-06-22T04:25:05;98753.06;;;20.38;94.57
53340;BME280;46212;50.258;19.062;2023-06-22T04:27:30;98764.91;;;20.61;93.73
53340;BME280;46212;50.258;19.062;2023-06-22T04:29:56;98767.28;;;20.46;94.32
53340;BME280;46212;50.258;19.062;2023-06-22T04:32:21;98766.69;;;20.58;93.54
53340;BME280;46212;50.258;19.062;2023-06-22T04:34:46;98774.16;;;20.50;94.29
53340;BME280;46212;50.258;19.062;2023-06-22T04:37:12;98766.41;;;20.62;93.67
53340;BME280;46212;50.258;19.062;2023-06-22T04:39:42;98773.34;;;20.55;94.27
53340;BME280;46212;50.258;19.062;2023-06-22T04:42:07;98762.78;;;20.73;93.50
53340;BME280;46212;50.258;19.062;2023-06-22T04:44:32;98747.88;;;20.89;93.10
53340;BME280;46212;50.258;19.062;2023-06-22T04:47:00;98756.34;;;21.13;92.35
53340;BME280;46212;50.258;19.062;2023-06-22T04:49:28;98762.53;;;21.36;91.31
53340;BME280;46212;50.258;19.062;2023-06-22T04:52:05;98761.53;;;21.33;91.42
53340;BME280;46212;50.258;19.062;2023-06-22T04:54:32;98765.28;;;21.41;90.89
53340;BME280;46212;50.258;19.062;2023-06-22T04:56:58;98779.28;;;21.47;90.81
53340;BME280;46212;50.258;19.062;2023-06-22T04:59:24;98783.84;;;21.50;90.97
53340;BME280;46212;50.258;19.062;2023-06-22T05:01:54;98786.72;;;21.68;90.43
53340;BME280;46212;50.258;19.062;2023-06-22T05:04:21;98780.28;;;21.73;89.73
53340;BME280;46212;50.258;19.062;2023-06-22T05:06:47;98778.09;;;21.85;89.43
53340;BME280;46212;50.258;19.062;2023-06-22T05:09:13;98779.44;;;21.79;89.26
53340;BME280;46212;50.258;19.062;2023-06-22T05:11:38;98794.94;;;21.91;89.15
53340;BME280;46212;50.258;19.062;2023-06-22T05:14:03;98789.34;;;22.09;87.94
53340;BME280;46212;50.258;19.062;2023-06-22T05:16:29;98794.44;;;22.11;88.03
53340;BME280;46212;50.258;19.062;2023-06-22T05:18:54;98790.25;;;22.17;87.33
53340;BME280;46212;50.258;19.062;2023-06-22T05:21:22;98799.94;;;22.41;86.59
53340;BME280;46212;50.258;19.062;2023-06-22T05:23:48;98799.09;;;22.64;85.30
53340;BME280;46212;50.258;19.062;2023-06-22T05:26:14;98812.25;;;22.56;85.35
53340;BME280;46212;50.258;19.062;2023-06-22T05:28:39;98795.97;;;22.49;86.39
53340;BME280;46212;50.258;19.062;2023-06-22T05:31:04;98799.06;;;22.70;85.66
53340;BME280;46212;50.258;19.062;2023-06-22T05:33:30;98802.31;;;22.93;84.87
53340;BME280;46212;50.258;19.062;2023-06-22T05:35:55;98795.84;;;23.11;83.48
53340;BME280;46212;50.258;19.062;2023-06-22T05:38:21;98802.72;;;23.28;82.98
53340;BME280;46212;50.258;19.062;2023-06-22T05:40:46;98814.63;;;23.40;82.54
53340;BME280;46212;50.258;19.062;2023-06-22T05:43:11;98803.56;;;23.55;82.16
53340;BME280;46212;50.258;19.062;2023-06-22T05:45:37;98814.22;;;23.75;80.94
53340;BME280;46212;50.258;19.062;2023-06-22T05:48:02;98812.59;;;23.93;79.08
53340;BME280;46212;50.258;19.062;2023-06-22T05:50:28;98808.06;;;23.90;78.80
53340;BME280;46212;50.258;19.062;2023-06-22T05:52:53;98805.75;;;23.89;79.52
53340;BME280;46212;50.258;19.062;2023-06-22T05:55:19;98804.16;;;24.06;78.86
53340;BME280;46212;50.258;19.062;2023-06-22T05:57:44;98802.09;;;24.07;78.65
53340;BME280;46212;50.258;19.062;2023-06-22T06:00:10;98815.31;;;24.38;77.87
53340;BME280;46212;50.258;19.062;2023-06-22T06:02:37;98811.19;;;24.26;77.60
53340;BME280;46212;50.258;19.062;2023-06-22T06:05:02;98829.63;;;24.40;77.57
53340;BME280;46212;50.258;19.062;2023-06-22T06:07:28;98831.38;;;24.43;76.90
53340;BME280;46212;50.258;19.062;2023-06-22T06:09:54;98832.56;;;24.48;77.54
53340;BME280;46212;50.258;19.062;2023-06-22T06:12:19;98835.13;;;24.59;77.31
53340;BME280;46212;50.258;19.062;2023-06-22T06:14:45;98822.09;;;24.69;75.67
53340;BME280;46212;50.258;19.062;2023-06-22T06:17:10;98837.03;;;24.77;75.27
53340;BME280;46212;50.258;19.062;2023-06-22T06:19:36;98833.25;;;24.74;75.14
53340;BME280;46212;50.258;19.062;2023-06-22T06:22:01;98830.59;;;24.56;75.38
53340;BME280;46212;50.258;19.062;2023-06-22T06:24:27;98829.81;;;24.55;74.38
53340;BME280;46212;50.258;19.062;2023-06-22T06:26:52;98836.22;;;24.56;74.36
53340;BME280;46212;50.258;19.062;2023-06-22T06:29:17;98836.22;;;24.56;74.10
53340;BME280;46212;50.258;19.062;2023-06-22T06:31:43;98857.22;;;24.47;74.75
53340;BME280;46212;50.258;19.062;2023-06-22T06:34:08;98856.78;;;24.43;74.41
53340;BME280;46212;50.258;19.062;2023-06-22T06:36:33;98842.16;;;24.18;75.21
53340;BME280;46212;50.258;19.062;2023-06-22T06:38:59;98854.59;;;24.36;74.63
53340;BME280;46212;50.258;19.062;2023-06-22T06:41:24;98842.56;;;24.36;73.97
53340;BME280;46212;50.258;19.062;2023-06-22T06:43:50;98842.34;;;24.33;74.47
53340;BME280;46212;50.258;19.062;2023-06-22T06:46:15;98843.75;;;24.40;75.00
53340;BME280;46212;50.258;19.062;2023-06-22T06:48:40;98830.84;;;24.45;75.55
53340;BME280;46212;50.258;19.062;2023-06-22T06:51:06;98829.16;;;24.62;74.60
53340;BME280;46212;50.258;19.062;2023-06-22T06:53:35;98831.94;;;24.75;73.96
53340;BME280;46212;50.258;19.062;2023-06-22T06:56:00;98832.09;;;24.70;74.31
53340;BME280;46212;50.258;19.062;2023-06-22T06:58:26;98828.00;;;24.92;72.31
53340;BME280;46212;50.258;19.062;2023-06-22T07:00:51;98839.91;;;25.11;71.32
53340;BME280;46212;50.258;19.062;2023-06-22T07:03:16;98828.09;;;25.20;69.05
53340;BME280;46212;50.258;19.062;2023-06-22T07:05:42;98832.66;;;25.23;68.58
53340;BME280;46212;50.258;19.062;2023-06-22T07:08:07;98835.75;;;25.12;68.05
53340;BME280;46212;50.258;19.062;2023-06-22T07:10:33;98838.94;;;25.08;67.39
53340;BME280;46212;50.258;19.062;2023-06-22T07:12:58;98838.28;;;25.02;66.99
53340;BME280;46212;50.258;19.062;2023-06-22T07:15:23;98839.28;;;25.05;65.69
53340;BME280;46212;50.258;19.062;2023-06-22T07:17:49;98842.47;;;24.88;67.45
53340;BME280;46212;50.258;19.062;2023-06-22T07:20:14;98840.81;;;24.93;67.58
53340;BME280;46212;50.258;19.062;2023-06-22T07:22:43;98832.75;;;24.97;64.79
53340;BME280;46212;50.258;19.062;2023-06-22T07:25:12;98840.22;;;25.07;65.73
53340;BME280;46212;50.258;19.062;2023-06-22T07:27:44;98844.03;;;25.10;64.35
53340;BME280;46212;50.258;19.062;2023-06-22T07:30:10;98842.72;;;25.11;64.00
53340;BME280;46212;50.258;19.062;2023-06-22T07:32:36;98851.72;;;25.09;63.24
53340;BME280;46212;50.258;19.062;2023-06-22T07:35:02;98849.25;;;25.06;63.49
53340;BME280;46212;50.258;19.062;2023-06-22T07:37:28;98852.97;;;25.01;64.28
53340;BME280;46212;50.258;19.062;2023-06-22T07:39:54;98858.72;;;25.08;62.40
53340;BME280;46212;50.258;19.062;2023-06-22T07:42:24;98864.78;;;25.12;62.15
53340;BME280;46212;50.258;19.062;2023-06-22T07:44:50;98851.81;;;25.17;61.90
53340;BME280;46212;50.258;19.062;2023-06-22T07:47:16;98855.47;;;25.25;61.17
53340;BME280;46212;50.258;19.062;2023-06-22T07:49:43;98853.22;;;25.23;60.14
53340;BME280;46212;50.258;19.062;2023-06-22T07:52:08;98856.38;;;25.20;59.53
53340;BME280;46212;50.258;19.062;2023-06-22T07:54:34;98857.19;;;25.07;60.63
53340;BME280;46212;50.258;19.062;2023-06-22T07:56:59;98870.66;;;25.14;61.40
53340;BME280;46212;50.258;19.062;2023-06-22T07:59:25;98853.13;;;25.16;61.31
53340;BME280;46212;50.258;19.062;2023-06-22T08:01:50;98865.19;;;25.37;58.76
53340;BME280;46212;50.258;19.062;2023-06-22T08:04:16;98870.31;;;25.38;58.99
53340;BME280;46212;50.258;19.062;2023-06-22T08:06:41;98861.06;;;25.38;59.53
53340;BME280;46212;50.258;19.062;2023-06-22T08:09:07;98861.69;;;25.44;59.84
53340;BME280;46212;50.258;19.062;2023-06-22T08:11:32;98864.50;;;25.44;59.18
53340;BME280;46212;50.258;19.062;2023-06-22T08:13:58;98867.91;;;25.43;58.97
53340;BME280;46212;50.258;19.062;2023-06-22T08:16:23;98873.16;;;25.59;59.71
53340;BME280;46212;50.258;19.062;2023-06-22T08:18:49;98874.69;;;25.60;59.26
53340;BME280;46212;50.258;19.062;2023-06-22T08:21:14;98883.84;;;25.74;57.66
53340;BME280;46212;50.258;19.062;2023-06-22T08:23:40;98878.19;;;25.74;57.47
53340;BME280;46212;50.258;19.062;2023-06-22T08:26:05;98878.31;;;25.89;56.62
53340;BME280;46212;50.258;19.062;2023-06-22T08:28:30;98883.13;;;26.02;56.68
53340;BME280;46212;50.258;19.062;2023-06-22T08:30:56;98882.19;;;26.07;56.45
53340;BME280;46212;50.258;19.062;2023-06-22T08:33:21;98884.56;;;26.16;55.52
53340;BME280;46212;50.258;19.062;2023-06-22T08:35:54;98890.28;;;26.23;54.04
53340;BME280;46212;50.258;19.062;2023-06-22T08:38:20;98897.41;;;26.17;53.50
53340;BME280;46212;50.258;19.062;2023-06-22T08:40:45;98889.59;;;26.10;53.33
53340;BME280;46212;50.258;19.062;2023-06-22T08:43:11;98885.53;;;25.98;53.90
53340;BME280;46212;50.258;19.062;2023-06-22T08:45:36;98896.16;;;26.05;54.04
53340;BME280;46212;50.258;19.062;2023-06-22T08:48:02;98886.97;;;26.12;55.02
53340;BME280;46212;50.258;19.062;2023-06-22T08:50:27;98885.66;;;26.13;57.17
53340;BME280;46212;50.258;19.062;2023-06-22T08:52:53;98897.66;;;26.26;55.85
53340;BME280;46212;50.258;19.062;2023-06-22T08:55:18;98891.56;;;26.51;55.30
53340;BME280;46212;50.258;19.062;2023-06-22T08:57:44;98892.34;;;26.59;54.39
53340;BME280;46212;50.258;19.062;2023-06-22T09:00:09;98892.00;;;26.62;53.57
53340;BME280;46212;50.258;19.062;2023-06-22T09:02:43;98894.28;;;26.64;52.81
53340;BME280;46212;50.258;19.062;2023-06-22T09:05:09;98882.38;;;26.65;52.91
53340;BME280;46212;50.258;19.062;2023-06-22T09:07:35;98890.56;;;26.76;52.44
53340;BME280;46212;50.258;19.062;2023-06-22T09:10:00;98891.72;;;26.81;52.19
53340;BME280;46212;50.258;19.062;2023-06-22T09:12:26;98876.19;;;26.74;52.77
53340;BME280;46212;50.258;19.062;2023-06-22T09:14:53;98879.09;;;26.82;53.08
53340;BME280;46212;50.258;19.062;2023-06-22T09:17:18;98883.91;;;26.74;52.59
53340;BME280;46212;50.258;19.062;2023-06-22T09:19:44;98888.81;;;26.66;52.39
53340;BME280;46212;50.258;19.062;2023-06-22T09:22:09;98872.34;;;26.57;52.95
53340;BME280;46212;50.258;19.062;2023-06-22T09:24:35;98877.88;;;26.70;53.14
53340;BME280;46212;50.258;19.062;2023-06-22T09:27:00;98883.13;;;27.02;52.76
53340;BME280;46212;50.258;19.062;2023-06-22T09:29:26;98871.44;;;27.20;52.52
53340;BME280;46212;50.258;19.062;2023-06-22T09:31:51;98867.13;;;27.34;50.92
53340;BME280;46212;50.258;19.062;2023-06-22T09:34:18;98851.44;;;27.33;51.21
53340;BME280;46212;50.258;19.062;2023-06-22T09:36:48;98845.56;;;27.39;51.30
53340;BME280;46212;50.258;19.062;2023-06-22T09:39:14;98850.13;;;27.42;51.97
53340;BME280;46212;50.258;19.062;2023-06-22T09:41:39;98858.09;;;27.51;51.34
53340;BME280;46212;50.258;19.062;2023-06-22T09:44:04;98849.19;;;27.62;50.57
53340;BME280;46212;50.258;19.062;2023-06-22T09:46:30;98851.66;;;27.66;50.04
53340;BME280;46212;50.258;19.062;2023-06-22T09:48:55;98845.44;;;27.52;51.25
53340;BME280;46212;50.258;19.062;2023-06-22T09:51:21;98849.59;;;27.59;50.41
53340;BME280;46212;50.258;19.062;2023-06-22T09:53:47;98837.66;;;27.75;48.00
53340;BME280;46212;50.258;19.062;2023-06-22T09:56:12;98840.13;;;27.71;47.91
53340;BME280;46212;50.258;19.062;2023-06-22T09:58:41;98841.81;;;27.74;48.12
53340;BME280;46212;50.258;19.062;2023-06-22T10:01:07;98836.84;;;27.97;47.55
53340;BME280;46212;50.258;19.062;2023-06-22T10:03:32;98839.31;;;28.01;47.68
53340;BME280;46212;50.258;19.062;2023-06-22T10:05:58;98840.06;;;28.02;49.40
53340;BME280;46212;50.258;19.062;2023-06-22T10:08:23;98842.75;;;28.07;47.00
53340;BME280;46212;50.258;19.062;2023-06-22T10:10:48;98848.63;;;28.09;47.39
53340;BME280;46212;50.258;19.062;2023-06-22T10:13:14;98841.03;;;28.12;46.98
53340;BME280;46212;50.258;19.062;2023-06-22T10:15:40;98842.91;;;28.02;46.69
53340;BME280;46212;50.258;19.062;2023-06-22T10:18:05;98827.03;;;27.91;47.96
53340;BME280;46212;50.258;19.062;2023-06-22T10:20:31;98826.09;;;28.11;47.83
53340;BME280;46212;50.258;19.062;2023-06-22T10:22:56;98826.63;;;28.17;47.39
53340;BME280;46212;50.258;19.062;2023-06-22T10:25:22;98824.88;;;28.37;48.02
53340;BME280;46212;50.258;19.062;2023-06-22T10:27:47;98827.66;;;28.52;46.60
53340;BME280;46212;50.258;19.062;2023-06-22T10:30:13;98831.03;;;28.66;46.35
53340;BME280;46212;50.258;19.062;2023-06-22T10:32:38;98824.75;;;28.67;46.19
53340;BME280;46212;50.258;19.062;2023-06-22T10:35:04;98833.41;;;28.84;46.91
53340;BME280;46212;50.258;19.062;2023-06-22T10:37:30;98831.84;;;28.91;45.41
53340;BME280;46212;50.258;19.062;2023-06-22T10:39:55;98831.25;;;28.92;46.59
53340;BME280;46212;50.258;19.062;2023-06-22T10:42:20;98833.28;;;29.07;46.64
53340;BME280;46212;50.258;19.062;2023-06-22T10:44:46;98829.41;;;29.20;45.62
53340;BME280;46212;50.258;19.062;2023-06-22T10:47:11;98826.13;;;29.31;44.47
53340;BME280;46212;50.258;19.062;2023-06-22T10:49:40;98830.19;;;29.45;44.01
53340;BME280;46212;50.258;19.062;2023-06-22T10:52:08;98827.13;;;29.50;44.24
53340;BME280;46212;50.258;19.062;2023-06-22T10:54:35;98823.47;;;29.58;43.66
53340;BME280;46212;50.258;19.062;2023-06-22T10:57:01;98819.03;;;29.64;42.46
53340;BME280;46212;50.258;19.062;2023-06-22T10:59:27;98816.38;;;29.41;43.15
53340;BME280;46212;50.258;19.062;2023-06-22T11:01:54;98815.53;;;29.24;43.48
53340;BME280;46212;50.258;19.062;2023-06-22T11:04:20;98810.41;;;29.30;43.88
53340;BME280;46212;50.258;19.062;2023-06-22T11:06:45;98813.91;;;29.63;43.58
53340;BME280;46212;50.258;19.062;2023-06-22T11:09:10;98801.75;;;29.13;44.82
53340;BME280;46212;50.258;19.062;2023-06-22T11:11:36;98809.94;;;29.41;44.52
53340;BME280;46212;50.258;19.062;2023-06-22T11:14:01;98802.78;;;29.99;42.90
53340;BME280;46212;50.258;19.062;2023-06-22T11:16:27;98810.16;;;30.19;42.16
53340;BME280;46212;50.258;19.062;2023-06-22T11:18:52;98802.03;;;30.33;42.37
53340;BME280;46212;50.258;19.062;2023-06-22T11:21:18;98808.47;;;30.94;41.81
53340;BME280;46212;50.258;19.062;2023-06-22T11:23:43;98809.41;;;31.33;39.60
53340;BME280;46212;50.258;19.062;2023-06-22T11:26:08;98800.94;;;31.52;40.94
53340;BME280;46212;50.258;19.062;2023-06-22T11:28:34;98810.25;;;31.17;39.18
53340;BME280;46212;50.258;19.062;2023-06-22T11:30:59;98810.31;;;31.26;39.90
53340;BME280;46212;50.258;19.062;2023-06-22T11:33:24;98801.84;;;31.19;38.92
53340;BME280;46212;50.258;19.062;2023-06-22T11:35:50;98797.28;;;31.33;38.41
53340;BME280;46212;50.258;19.062;2023-06-22T11:38:15;98804.28;;;31.22;38.89
53340;BME280;46212;50.258;19.062;2023-06-22T11:40:40;98798.00;;;30.97;39.50
53340;BME280;46212;50.258;19.062;2023-06-22T11:43:06;98793.97;;;31.00;38.81
53340;BME280;46212;50.258;19.062;2023-06-22T11:45:31;98797.28;;;31.33;38.95
53340;BME280;46212;50.258;19.062;2023-06-22T11:47:56;98788.28;;;31.36;38.31
53340;BME280;46212;50.258;19.062;2023-06-22T11:50:22;98786.91;;;31.83;38.19
53340;BME280;46212;50.258;19.062;2023-06-22T11:52:47;98791.47;;;32.25;37.03
53340;BME280;46212;50.258;19.062;2023-06-22T11:55:13;98789.06;;;32.31;35.60
53340;BME280;46212;50.258;19.062;2023-06-22T11:57:53;98786.03;;;32.48;36.94
53340;BME280;46212;50.258;19.062;2023-06-22T12:00:18;98778.22;;;32.48;35.60
53340;BME280;46212;50.258;19.062;2023-06-22T12:02:44;98781.97;;;32.41;35.10
53340;BME280;46212;50.258;19.062;2023-06-22T12:05:12;98774.59;;;32.57;35.33
53340;BME280;46212;50.258;19.062;2023-06-22T12:07:38;98778.34;;;32.70;35.49
53340;BME280;46212;50.258;19.062;2023-06-22T12:10:03;98766.28;;;32.81;35.60
53340;BME280;46212;50.258;19.062;2023-06-22T12:12:29;98763.38;;;33.00;34.44
53340;BME280;46212;50.258;19.062;2023-06-22T12:14:55;98769.34;;;33.23;34.61
53340;BME280;46212;50.258;19.062;2023-06-22T12:17:20;98760.59;;;33.21;34.14
53340;BME280;46212;50.258;19.062;2023-06-22T12:19:45;98763.19;;;33.48;33.94
53340;BME280;46212;50.258;19.062;2023-06-22T12:22:11;98749.31;;;33.75;34.04
53340;BME280;46212;50.258;19.062;2023-06-22T12:24:36;98757.00;;;33.94;33.34
53340;BME280;46212;50.258;19.062;2023-06-22T12:27:02;98751.97;;;33.83;33.49
53340;BME280;46212;50.258;19.062;2023-06-22T12:29:28;98756.25;;;33.72;33.85
53340;BME280;46212;50.258;19.062;2023-06-22T12:31:54;98759.63;;;33.59;34.01
53340;BME280;46212;50.258;19.062;2023-06-22T12:34:19;98741.44;;;33.24;33.98
53340;BME280;46212;50.258;19.062;2023-06-22T12:36:45;98737.94;;;32.94;34.76
53340;BME280;46212;50.258;19.062;2023-06-22T12:39:12;98739.31;;;32.84;34.13
53340;BME280;46212;50.258;19.062;2023-06-22T12:41:37;98740.25;;;32.77;34.42
53340;BME280;46212;50.258;19.062;2023-06-22T12:44:03;98730.66;;;32.63;35.30
53340;BME280;46212;50.258;19.062;2023-06-22T12:46:28;98735.34;;;32.39;34.93